createdAt,value
2023-07-14T00:02:02.135Z,1.70
2023-07-14T00:04:35.042Z,1.90
2023-07-14T00:07:05.160Z,1.80
2023-07-14T00:09:34.795Z,1.85
2023-07-14T00:12:03.411Z,1.65
2023-07-14T00:14:31.637Z,1.80
2023-07-14T00:16:59.937Z,1.52
2023-07-14T00:19:28.937Z,1.77
2023-07-14T00:21:58.679Z,2.00
2023-07-14T00:24:27.783Z,1.60
2023-07-14T00:26:57.878Z,1.67
2023-07-14T00:29:44.392Z,1.60
2023-07-14T00:32:19.257Z,1.83
2023-07-14T00:34:47.399Z,1.83
2023-07-14T00:37:17.128Z,1.52
2023-07-14T00:39:45.862Z,1.70
2023-07-14T00:42:16.176Z,1.70
2023-07-14T00:44:46.279Z,1.90
2023-07-14T00:47:21.614Z,1.83
2023-07-14T00:49:52.383Z,1.75
2023-07-14T00:52:29.791Z,2.00
2023-07-14T00:54:59.350Z,1.83
2023-07-14T00:57:32.254Z,1.83
2023-07-14T01:00:22.180Z,1.60
2023-07-14T01:02:53.231Z,1.80
2023-07-14T01:05:21.614Z,1.75
2023-07-14T01:07:52.238Z,1.52
2023-07-14T01:10:25.331Z,1.90
2023-07-14T01:12:59.941Z,1.83
2023-07-14T01:15:28.728Z,1.83
2023-07-14T01:17:57.884Z,1.60
2023-07-14T01:20:26.350Z,1.90
2023-07-14T01:23:06.878Z,1.40
2023-07-14T01:25:50.273Z,1.52
2023-07-14T01:28:21.202Z,1.63
2023-07-14T01:30:49.573Z,1.98
2023-07-14T01:33:19.620Z,1.80
2023-07-14T01:35:52.393Z,2.00
2023-07-14T01:38:21.414Z,1.70
2023-07-14T01:40:55.254Z,1.77
2023-07-14T01:43:25.351Z,1.67
2023-07-14T01:45:58.045Z,1.58
2023-07-14T01:48:29.318Z,1.60
2023-07-14T01:51:00.577Z,1.88
2023-07-14T01:53:38.332Z,1.70
2023-07-14T01:56:09.672Z,1.70
2023-07-14T01:58:54.017Z,1.90
2023-07-14T02:01:24.856Z,1.65
2023-07-14T02:03:58.966Z,1.85
2023-07-14T02:06:27.708Z,1.65
2023-07-14T02:08:59.646Z,1.55
2023-07-14T02:11:29.890Z,1.70
2023-07-14T02:14:01.015Z,1.70
2023-07-14T02:16:31.210Z,1.67
2023-07-14T02:18:59.521Z,1.85
2023-07-14T02:21:31.950Z,1.50
2023-07-14T02:24:01.629Z,1.85
2023-07-14T02:26:34.269Z,1.75
2023-07-14T02:31:39.323Z,1.50
2023-07-14T02:34:13.096Z,1.80
2023-07-14T02:36:44.504Z,1.80
2023-07-14T02:39:15.607Z,1.90
2023-07-14T02:41:44.915Z,1.90
2023-07-14T02:44:18.336Z,1.50
2023-07-14T02:46:50.459Z,1.48
2023-07-14T02:49:21.074Z,1.90
2023-07-14T02:51:49.526Z,1.90
2023-07-14T02:54:20.320Z,1.77
2023-07-14T02:56:48.535Z,2.00
2023-07-14T02:59:21.460Z,1.70
2023-07-14T03:01:50.187Z,1.73
2023-07-14T03:04:18.806Z,1.67
2023-07-14T03:06:49.622Z,1.50
2023-07-14T03:09:17.986Z,1.88
2023-07-14T03:11:46.203Z,1.73
2023-07-14T03:14:14.417Z,1.92
2023-07-14T03:16:44.202Z,1.77
2023-07-14T03:19:12.441Z,1.80
2023-07-14T03:21:40.486Z,1.60
2023-07-14T03:24:09.118Z,1.75
2023-07-14T03:26:37.473Z,1.80
2023-07-14T03:29:05.630Z,1.77
2023-07-14T03:31:33.966Z,1.83
2023-07-14T03:34:03.499Z,2.05
2023-07-14T03:36:32.172Z,1.60
2023-07-14T03:39:26.994Z,1.92
2023-07-14T03:41:56.989Z,1.67
2023-07-14T03:44:26.845Z,2.00
2023-07-14T03:46:55.556Z,1.52
2023-07-14T03:49:25.100Z,1.80
2023-07-14T03:51:55.935Z,1.65
2023-07-14T03:54:24.137Z,1.90
2023-07-14T03:56:53.596Z,1.70
2023-07-14T03:59:21.984Z,1.80
2023-07-14T04:01:50.196Z,1.80
2023-07-14T04:04:21.102Z,1.70
2023-07-14T04:06:53.262Z,1.85
2023-07-14T04:09:21.975Z,1.88
2023-07-14T04:11:50.180Z,2.00
2023-07-14T04:14:21.724Z,2.10
2023-07-14T04:16:52.531Z,1.80
2023-07-14T04:19:20.787Z,2.08
2023-07-14T04:21:50.982Z,1.92
2023-07-14T04:24:19.226Z,2.00
2023-07-14T04:26:47.381Z,2.22
2023-07-14T04:29:18.793Z,2.53
2023-07-14T04:31:49.545Z,1.98
2023-07-14T04:34:18.870Z,2.50
2023-07-14T04:36:48.409Z,2.10
2023-07-14T04:39:17.958Z,2.30
2023-07-14T04:41:46.384Z,2.20
2023-07-14T04:44:17.119Z,2.53
2023-07-14T04:46:50.082Z,2.17
2023-07-14T04:49:18.581Z,2.42
2023-07-14T04:51:47.150Z,2.15
2023-07-14T04:54:17.049Z,2.00
2023-07-14T04:56:45.532Z,2.50
2023-07-14T04:59:13.776Z,2.63
2023-07-14T05:01:42.033Z,2.78
2023-07-14T05:04:13.564Z,2.58
2023-07-14T05:06:42.255Z,2.63
2023-07-14T05:09:12.305Z,2.35
2023-07-14T05:11:43.041Z,2.40
2023-07-14T05:14:11.148Z,2.33
2023-07-14T05:16:39.337Z,2.22
2023-07-14T05:19:07.557Z,2.25
2023-07-14T05:21:35.671Z,2.30
2023-07-14T05:24:05.177Z,2.10
2023-07-14T05:26:37.158Z,2.10
2023-07-14T05:29:10.209Z,2.17
2023-07-14T05:31:39.792Z,2.38
2023-07-14T05:34:10.472Z,2.05
2023-07-14T05:36:39.235Z,2.15
2023-07-14T05:39:07.653Z,2.35
2023-07-14T05:41:36.031Z,2.40
2023-07-14T05:44:07.266Z,2.30
2023-07-14T05:46:36.798Z,2.17
2023-07-14T05:49:05.006Z,2.20
2023-07-14T05:51:33.130Z,2.53
2023-07-14T05:54:01.839Z,2.42
2023-07-14T05:56:30.176Z,2.58
2023-07-14T05:58:58.435Z,2.30
2023-07-14T06:01:26.635Z,2.45
2023-07-14T06:03:56.294Z,2.08
2023-07-14T06:06:24.432Z,2.10
2023-07-14T06:08:53.912Z,2.22
2023-07-14T06:11:25.005Z,2.38
2023-07-14T06:13:53.097Z,2.20
2023-07-14T06:16:21.719Z,2.20
2023-07-14T06:18:50.281Z,2.30
2023-07-14T06:21:20.214Z,2.22
2023-07-14T06:23:48.499Z,2.10
2023-07-14T06:26:16.826Z,2.10
2023-07-14T06:28:44.962Z,2.20
2023-07-14T06:31:15.445Z,2.17
2023-07-14T06:33:46.226Z,1.98
2023-07-14T06:36:15.965Z,1.85
2023-07-14T06:38:45.633Z,2.03
2023-07-14T06:41:16.822Z,1.88
2023-07-14T06:43:48.256Z,2.00
2023-07-14T06:46:17.000Z,1.83
2023-07-14T06:48:47.096Z,2.05
2023-07-14T06:51:16.006Z,2.00
2023-07-14T06:53:46.740Z,2.10
2023-07-14T06:56:15.634Z,1.95
2023-07-14T06:58:44.259Z,1.98
2023-07-14T07:01:12.621Z,1.98
2023-07-14T07:03:41.961Z,1.90
2023-07-14T07:06:12.483Z,2.13
2023-07-14T07:08:40.936Z,1.98
2023-07-14T07:11:14.043Z,1.90
2023-07-14T07:13:44.294Z,2.05
2023-07-14T07:16:13.080Z,1.90
2023-07-14T07:18:41.484Z,1.90
2023-07-14T07:21:13.612Z,2.00
2023-07-14T07:23:41.840Z,2.00
2023-07-14T07:26:11.647Z,2.10
2023-07-14T07:28:39.922Z,2.10
2023-07-14T07:31:10.665Z,2.00
2023-07-14T07:33:39.452Z,1.98
2023-07-14T07:36:16.242Z,2.03
2023-07-14T07:38:46.950Z,1.90
2023-07-14T07:41:17.511Z,2.05
2023-07-14T07:43:46.192Z,1.95
2023-07-14T07:46:20.392Z,1.77
2023-07-14T07:48:51.285Z,2.00
2023-07-14T07:51:29.429Z,1.70
2023-07-14T07:53:57.639Z,2.08
2023-07-14T07:56:29.675Z,1.95
2023-07-14T07:58:57.917Z,2.00
2023-07-14T08:01:30.700Z,1.90
2023-07-14T08:04:01.775Z,1.92
2023-07-14T08:06:30.675Z,2.03
2023-07-14T08:08:59.253Z,1.65
2023-07-14T08:11:29.892Z,1.70
2023-07-14T08:14:00.169Z,1.70
2023-07-14T08:16:28.401Z,1.92
2023-07-14T08:18:56.536Z,1.92
2023-07-14T08:21:24.617Z,1.80
2023-07-14T08:23:53.904Z,1.58
2023-07-14T08:26:22.318Z,1.90
2023-07-14T08:28:51.815Z,1.88
2023-07-14T08:31:20.008Z,1.83
2023-07-14T08:33:51.855Z,1.70
2023-07-14T08:36:23.175Z,2.05
2023-07-14T08:38:51.382Z,1.90
2023-07-14T08:41:29.917Z,1.80
2023-07-14T08:44:29.923Z,1.98
2023-07-14T08:47:06.339Z,1.70
2023-07-14T08:49:46.124Z,1.92
2023-07-14T08:52:21.782Z,2.13
2023-07-14T08:54:57.742Z,1.80
2023-07-14T08:57:27.806Z,1.90
2023-07-14T09:00:01.988Z,1.90
2023-07-14T09:02:37.715Z,1.95
2023-07-14T09:05:10.798Z,1.73
2023-07-14T09:07:39.597Z,2.00
2023-07-14T09:10:11.348Z,1.80
2023-07-14T09:12:50.396Z,2.10
2023-07-14T09:15:25.993Z,2.20
2023-07-14T09:18:05.049Z,1.90
2023-07-14T09:21:04.178Z,1.92
2023-07-14T09:23:55.852Z,1.73
2023-07-14T09:26:31.959Z,2.00
2023-07-14T09:29:09.355Z,2.00
2023-07-14T09:31:53.689Z,2.00
2023-07-14T09:34:28.403Z,1.75
2023-07-14T09:36:58.274Z,2.00
2023-07-14T09:39:33.595Z,2.03
2023-07-14T09:42:05.764Z,1.70
2023-07-14T09:44:33.968Z,1.90
2023-07-14T09:47:06.165Z,2.13
2023-07-14T09:49:40.594Z,1.83
2023-07-14T09:52:15.721Z,1.73
2023-07-14T09:54:52.109Z,2.00
2023-07-14T09:57:37.710Z,1.80
2023-07-14T10:00:17.247Z,1.60
2023-07-14T10:02:52.261Z,1.85
2023-07-14T10:05:43.137Z,2.10
2023-07-14T10:08:27.401Z,1.98
2023-07-14T10:10:58.823Z,1.90
2023-07-14T10:13:29.054Z,1.88
2023-07-14T10:16:04.971Z,1.80
2023-07-14T10:18:52.160Z,1.70
2023-07-14T10:21:27.358Z,2.10
2023-07-14T10:24:00.366Z,2.00
2023-07-14T10:26:33.635Z,1.90
2023-07-14T10:29:03.814Z,2.00
2023-07-14T10:31:39.032Z,2.00
2023-07-14T10:34:29.720Z,1.90
2023-07-14T10:37:02.250Z,1.95
2023-07-14T10:42:12.251Z,1.88
2023-07-14T10:44:44.354Z,2.00
2023-07-14T10:47:22.851Z,1.90
2023-07-14T10:50:00.054Z,2.00
2023-07-14T10:52:32.795Z,2.10
2023-07-14T10:55:06.283Z,2.00
2023-07-14T10:57:43.317Z,1.90
2023-07-14T11:00:22.926Z,1.92
2023-07-14T11:03:04.536Z,1.70
2023-07-14T11:05:35.271Z,1.80
2023-07-14T11:08:03.505Z,1.83
2023-07-14T11:10:41.878Z,1.83
2023-07-14T11:13:23.147Z,1.80
2023-07-14T11:15:59.774Z,1.75
2023-07-14T11:18:36.134Z,1.67
2023-07-14T11:21:20.271Z,1.83
2023-07-14T11:23:57.452Z,1.70
2023-07-14T11:26:32.308Z,1.75
2023-07-14T11:29:10.380Z,1.90
2023-07-14T11:31:46.909Z,1.80
2023-07-14T11:34:25.403Z,1.80
2023-07-14T11:37:05.994Z,1.90
2023-07-14T11:39:44.070Z,1.83
2023-07-14T11:42:20.394Z,1.95
2023-07-14T11:44:51.486Z,1.80
2023-07-14T11:47:26.214Z,1.73
2023-07-14T11:49:56.616Z,1.70
2023-07-14T11:52:28.234Z,1.90
2023-07-14T11:55:05.417Z,1.90
2023-07-14T11:57:49.864Z,1.70
2023-07-14T12:00:24.890Z,1.90
2023-07-14T12:03:02.091Z,1.80
2023-07-14T12:05:37.525Z,1.73
2023-07-14T12:08:24.264Z,1.85
2023-07-14T12:10:54.636Z,1.75
2023-07-14T12:13:29.319Z,1.80
2023-07-14T12:16:22.785Z,1.55
2023-07-14T12:19:24.104Z,1.80
2023-07-14T12:22:08.784Z,1.88
2023-07-14T12:24:43.460Z,1.85
2023-07-14T12:27:26.607Z,1.85
2023-07-14T12:30:04.532Z,1.80
2023-07-14T12:32:33.017Z,1.70
2023-07-14T12:35:01.231Z,1.90
2023-07-14T12:37:35.515Z,1.90
2023-07-14T12:40:14.452Z,1.90
2023-07-14T12:42:46.901Z,1.88
2023-07-14T12:45:18.292Z,1.67
2023-07-14T12:47:47.854Z,1.90
2023-07-14T12:50:17.688Z,1.98
2023-07-14T12:52:46.993Z,1.77
2023-07-14T12:55:21.217Z,1.98
2023-07-14T12:57:53.018Z,1.60
2023-07-14T13:00:25.924Z,1.90
2023-07-14T13:02:56.345Z,1.90
2023-07-14T13:05:31.407Z,1.90
2023-07-14T13:07:59.874Z,1.90
2023-07-14T13:10:33.549Z,1.90
2023-07-14T13:13:01.739Z,1.80
2023-07-14T13:15:35.006Z,1.77
2023-07-14T13:18:11.093Z,2.00
2023-07-14T13:20:42.887Z,1.70
2023-07-14T13:23:23.377Z,1.77
2023-07-14T13:25:59.434Z,1.70
2023-07-14T13:28:33.767Z,1.73
2023-07-14T13:31:07.374Z,1.80
2023-07-14T13:33:35.587Z,2.00
2023-07-14T13:36:08.707Z,1.80
2023-07-14T13:38:37.456Z,1.60
2023-07-14T13:41:12.698Z,1.77
2023-07-14T13:43:41.416Z,1.80
2023-07-14T13:46:15.411Z,2.00
2023-07-14T13:48:44.338Z,1.80
2023-07-14T13:51:20.106Z,1.77
2023-07-14T13:53:48.304Z,1.80
2023-07-14T13:56:21.419Z,2.10
2023-07-14T13:58:50.804Z,1.90
2023-07-14T14:01:21.952Z,1.80
2023-07-14T14:03:52.526Z,1.92
2023-07-14T14:06:21.640Z,1.90
2023-07-14T14:08:50.033Z,1.90
2023-07-14T14:11:19.615Z,1.85
2023-07-14T14:13:47.657Z,1.95
2023-07-14T14:16:19.293Z,1.90
2023-07-14T14:18:51.822Z,2.00
2023-07-14T14:23:47.840Z,1.90
2023-07-14T14:26:18.124Z,1.70
2023-07-14T14:28:48.674Z,1.77
2023-07-14T14:31:16.913Z,1.80
2023-07-14T14:33:50.024Z,1.60
2023-07-14T14:36:18.337Z,1.65
2023-07-14T14:38:47.972Z,1.80
2023-07-14T15:01:22.066Z,1.63
2023-07-14T15:03:50.672Z,1.90
2023-07-14T15:06:21.728Z,1.80
2023-07-14T15:08:50.238Z,1.80
2023-07-14T15:11:20.025Z,1.60
2023-07-14T15:16:20.824Z,1.58
2023-07-14T15:18:48.977Z,1.85
2023-07-14T15:21:21.008Z,1.60
2023-07-14T15:23:49.672Z,1.88
2023-07-14T15:26:21.135Z,1.67
2023-07-14T15:28:50.235Z,1.70
2023-07-14T15:31:20.585Z,1.80
2023-07-14T15:33:49.844Z,1.80
2023-07-14T15:36:19.915Z,1.73
2023-07-14T15:38:48.726Z,1.80
2023-07-14T15:41:22.668Z,1.73
2023-07-14T15:43:52.603Z,1.75
2023-07-14T15:46:23.892Z,1.77
2023-07-14T15:48:54.365Z,1.88
2023-07-14T15:51:27.066Z,1.60
2023-07-14T15:53:58.343Z,1.70
2023-07-14T15:56:27.046Z,1.70
2023-07-14T15:58:55.929Z,1.42
2023-07-14T16:01:29.855Z,1.80
2023-07-14T16:03:58.823Z,1.77
2023-07-14T16:06:27.617Z,1.85
2023-07-14T16:08:56.888Z,1.70
2023-07-14T16:11:30.224Z,1.70
2023-07-14T16:13:59.493Z,1.73
2023-07-14T16:16:29.112Z,1.70
2023-07-14T16:18:57.511Z,1.73
2023-07-14T16:21:31.544Z,1.80
2023-07-14T16:24:03.006Z,1.85
2023-07-14T16:26:31.423Z,1.80
2023-07-14T16:29:01.795Z,1.92
2023-07-14T16:31:31.764Z,1.70
2023-07-14T16:33:59.899Z,1.73
2023-07-14T16:36:32.924Z,1.65
2023-07-14T16:39:04.230Z,1.73
2023-07-14T16:41:35.295Z,1.67
2023-07-14T16:44:06.681Z,1.70
2023-07-14T16:46:50.521Z,1.80
2023-07-14T16:49:18.658Z,1.73
2023-07-14T16:51:50.189Z,1.95
2023-07-14T16:54:36.196Z,1.80
2023-07-14T16:57:12.219Z,1.92
2023-07-14T16:59:40.369Z,1.80
2023-07-14T17:02:21.598Z,1.60
2023-07-14T17:04:50.356Z,1.80
2023-07-14T17:07:21.946Z,1.80
2023-07-14T17:09:51.341Z,2.00
2023-07-14T17:12:20.337Z,1.80
2023-07-14T17:14:48.793Z,2.00
2023-07-14T17:17:19.618Z,1.77
2023-07-14T17:19:47.861Z,1.67
2023-07-14T17:22:19.740Z,1.85
2023-07-14T17:24:52.905Z,2.10
2023-07-14T17:27:21.611Z,1.73
2023-07-14T17:29:52.498Z,1.92
2023-07-14T17:32:22.898Z,1.98
2023-07-14T17:34:51.889Z,1.80
2023-07-14T17:37:24.983Z,1.70
2023-07-14T17:39:53.318Z,1.98
2023-07-14T17:42:24.304Z,1.88
2023-07-14T17:44:56.338Z,2.03
2023-07-14T17:47:26.440Z,2.05
2023-07-14T17:49:54.734Z,2.00
2023-07-14T17:52:23.356Z,2.08
2023-07-14T17:54:51.438Z,2.00
2023-07-14T17:57:23.232Z,2.10
2023-07-14T17:59:53.438Z,1.88
2023-07-14T18:02:26.626Z,2.17
2023-07-14T18:04:56.443Z,1.95
2023-07-14T18:07:25.297Z,2.00
2023-07-14T18:09:53.589Z,2.20
2023-07-14T18:12:22.718Z,2.22
2023-07-14T18:14:50.974Z,2.20
2023-07-14T18:17:20.255Z,2.00
2023-07-14T18:19:51.802Z,2.10
2023-07-14T18:22:29.552Z,2.10
2023-07-14T18:24:58.640Z,2.10
2023-07-14T18:27:27.039Z,2.20
2023-07-14T18:29:55.714Z,2.20
2023-07-14T18:32:23.868Z,2.10
2023-07-14T18:34:54.813Z,1.90
2023-07-14T18:37:24.361Z,2.20
2023-07-14T18:39:52.874Z,2.22
2023-07-14T18:42:26.971Z,2.30
2023-07-14T18:44:56.025Z,2.20
2023-07-14T18:47:24.263Z,2.13
2023-07-14T18:49:52.498Z,2.10
2023-07-14T18:52:21.272Z,1.98
2023-07-14T18:54:51.127Z,2.00
2023-07-14T18:57:20.874Z,2.40
2023-07-14T18:59:50.043Z,2.10
2023-07-14T19:02:30.539Z,2.30
2023-07-14T19:05:01.550Z,2.10
2023-07-14T19:07:33.263Z,2.25
2023-07-14T19:10:06.357Z,2.42
2023-07-14T19:12:36.858Z,2.30
2023-07-14T19:15:18.600Z,2.00
2023-07-14T19:17:47.948Z,2.22
2023-07-14T19:20:17.411Z,2.30
2023-07-14T19:22:48.295Z,2.10
2023-07-14T19:25:19.782Z,2.28
2023-07-14T19:27:49.388Z,2.00
2023-07-14T19:30:22.526Z,2.38
2023-07-14T19:32:57.850Z,2.35
2023-07-14T19:35:27.609Z,2.10
2023-07-14T19:37:55.833Z,2.20
2023-07-14T19:40:29.885Z,2.10
2023-07-14T19:42:58.278Z,2.17
2023-07-14T19:45:26.892Z,2.13
2023-07-14T19:47:55.464Z,2.10
2023-07-14T19:50:24.192Z,2.15
2023-07-14T19:52:52.984Z,2.05
2023-07-14T19:55:22.919Z,2.08
2023-07-14T19:57:53.408Z,2.00
2023-07-14T20:00:23.742Z,2.30
2023-07-14T20:02:53.066Z,2.10
2023-07-14T20:05:25.373Z,2.30
2023-07-14T20:07:54.227Z,2.00
2023-07-14T20:10:24.272Z,2.10
2023-07-14T20:12:54.165Z,2.22
2023-07-14T20:15:26.367Z,2.25
2023-07-14T20:17:57.496Z,2.22
2023-07-14T20:20:25.646Z,2.40
2023-07-14T20:22:59.459Z,2.40
2023-07-14T20:25:30.600Z,2.08
2023-07-14T20:28:02.935Z,2.30
2023-07-14T20:30:31.085Z,2.30
2023-07-14T20:32:59.318Z,2.30
2023-07-14T20:35:27.538Z,2.45
2023-07-14T20:37:55.647Z,2.42
2023-07-14T20:40:23.776Z,2.30
2023-07-14T20:42:52.371Z,2.20
2023-07-14T20:45:23.072Z,2.08
2023-07-14T20:47:54.000Z,2.15
2023-07-14T20:50:22.510Z,2.35
2023-07-14T20:52:52.937Z,2.50
2023-07-14T20:55:38.796Z,2.17
2023-07-14T20:58:13.044Z,2.05
2023-07-14T21:00:43.169Z,2.35
2023-07-14T21:03:18.646Z,2.50
2023-07-14T21:05:48.383Z,2.45
2023-07-14T21:08:19.137Z,2.47
2023-07-14T21:10:47.695Z,2.33
2023-07-14T21:13:18.994Z,2.70
2023-07-14T21:15:49.758Z,2.30
2023-07-14T21:18:20.921Z,2.50
2023-07-14T21:20:50.072Z,2.78
2023-07-14T21:23:23.356Z,2.60
2023-07-14T21:25:53.386Z,2.63
2023-07-14T21:28:22.375Z,2.55
2023-07-14T21:30:55.122Z,2.50
2023-07-14T21:33:28.706Z,2.20
2023-07-14T21:35:57.633Z,2.50
2023-07-14T21:38:28.389Z,2.40
2023-07-14T21:40:58.114Z,2.47
2023-07-14T21:43:31.191Z,2.50
2023-07-14T21:46:02.559Z,2.40
2023-07-14T21:48:33.679Z,2.30
2023-07-14T21:51:10.050Z,2.70
2023-07-14T21:53:38.385Z,2.53
2023-07-14T21:56:06.533Z,2.50
2023-07-14T21:58:35.382Z,2.33
2023-07-14T22:01:19.524Z,2.58
2023-07-14T22:03:51.425Z,2.45
2023-07-14T22:06:21.339Z,2.67
2023-07-14T22:08:49.496Z,2.55
2023-07-14T22:11:21.968Z,2.40
2023-07-14T22:16:21.920Z,2.30
2023-07-14T22:18:52.601Z,2.42
2023-07-14T22:21:23.194Z,2.30
2023-07-14T22:23:52.665Z,2.15
2023-07-14T22:26:23.077Z,2.40
2023-07-14T22:28:52.235Z,2.40
2023-07-14T22:31:25.860Z,2.40
2023-07-14T22:33:59.954Z,2.17
2023-07-14T22:36:31.532Z,2.58
2023-07-14T22:39:00.847Z,2.40
2023-07-14T22:41:34.248Z,2.17
2023-07-14T22:44:04.867Z,2.35
2023-07-14T22:46:34.539Z,2.70
2023-07-14T22:49:04.246Z,2.20
2023-07-14T22:51:36.736Z,2.63
2023-07-14T22:54:06.096Z,2.50
2023-07-14T22:56:34.286Z,2.60
2023-07-14T22:59:04.016Z,2.45
2023-07-14T23:01:36.396Z,2.10
2023-07-14T23:06:33.315Z,2.38
2023-07-14T23:09:01.456Z,2.40
2023-07-14T23:11:33.819Z,2.30
2023-07-14T23:14:03.535Z,2.40
2023-07-14T23:16:32.109Z,2.45
2023-07-14T23:19:01.641Z,2.50
2023-07-14T23:21:32.135Z,2.47
2023-07-14T23:24:01.626Z,2.88
2023-07-14T23:26:31.709Z,2.50
2023-07-14T23:28:59.972Z,2.78
2023-07-14T23:31:32.291Z,2.40
2023-07-14T23:34:02.465Z,2.70
2023-07-14T23:36:31.340Z,2.60
2023-07-14T23:38:59.644Z,2.53
2023-07-14T23:41:31.682Z,2.72
2023-07-14T23:44:02.668Z,2.50
2023-07-14T23:46:34.069Z,2.53
2023-07-14T23:49:10.933Z,2.50
2023-07-14T23:51:41.470Z,2.40
2023-07-14T23:54:13.611Z,2.88
2023-07-14T23:56:41.804Z,2.55
2023-07-14T23:59:15.572Z,2.53
